sensor_id;sensor_type;location;lat;lon;timestamp;temperature;humidity
60027;DHT22;45891;53.006;6.512;2023-02-11T00:00:52;6.90;99.90
60027;DHT22;45891;53.006;6.512;2023-02-11T00:03:18;6.90;99.90
60027;DHT22;45891;53.006;6.512;2023-02-11T00:05:44;6.90;99.90
60027;DHT22;45891;53.006;6.512;2023-02-11T00:08:10;6.90;99.90
60027;DHT22;45891;53.006;6.512;2023-02-11T00:10:41;6.90;99.90
60027;DHT22;45891;53.006;6.512;2023-02-11T00:13:07;6.80;99.90
60027;DHT22;45891;53.006;6.512;2023-02-11T00:15:33;6.90;99.90
60027;DHT22;45891;53.006;6.512;2023-02-11T00:17:59;6.90;99.90
60027;DHT22;45891;53.006;6.512;2023-02-11T00:20:25;6.90;99.90
60027;DHT22;45891;53.006;6.512;2023-02-11T00:22:51;6.90;99.90
60027;DHT22;45891;53.006;6.512;2023-02-11T00:25:17;6.80;99.90
60027;DHT22;45891;53.006;6.512;2023-02-11T00:27:42;6.80;99.90
60027;DHT22;45891;53.006;6.512;2023-02-11T00:30:09;6.80;99.90
60027;DHT22;45891;53.006;6.512;2023-02-11T00:32:35;6.70;99.90
60027;DHT22;45891;53.006;6.512;2023-02-11T00:35:01;6.80;99.90
60027;DHT22;45891;53.006;6.512;2023-02-11T00:37:28;6.70;99.90
60027;DHT22;45891;53.006;6.512;2023-02-11T00:39:54;6.80;99.90
60027;DHT22;45891;53.006;6.512;2023-02-11T00:42:19;6.70;99.90
60027;DHT22;45891;53.006;6.512;2023-02-11T00:44:45;6.70;99.90
60027;DHT22;45891;53.006;6.512;2023-02-11T00:47:11;6.70;99.90
60027;DHT22;45891;53.006;6.512;2023-02-11T00:49:37;6.70;99.90
60027;DHT22;45891;53.006;6.512;2023-02-11T00:52:04;6.60;99.90
60027;DHT22;45891;53.006;6.512;2023-02-11T00:54:31;6.70;99.90
60027;DHT22;45891;53.006;6.512;2023-02-11T00:56:59;6.60;99.90
60027;DHT22;45891;53.006;6.512;2023-02-11T00:59:25;6.50;99.90
60027;DHT22;45891;53.006;6.512;2023-02-11T01:01:51;6.50;99.90
60027;DHT22;45891;53.006;6.512;2023-02-11T01:04:17;6.50;99.90
60027;DHT22;45891;53.006;6.512;2023-02-11T01:06:43;6.50;99.90
60027;DHT22;45891;53.006;6.512;2023-02-11T01:09:09;6.50;99.90
60027;DHT22;45891;53.006;6.512;2023-02-11T01:11:35;6.40;99.90
60027;DHT22;45891;53.006;6.512;2023-02-11T01:14:01;6.40;99.90
60027;DHT22;45891;53.006;6.512;2023-02-11T01:16:27;6.30;99.90
60027;DHT22;45891;53.006;6.512;2023-02-11T01:18:53;6.20;99.90
60027;DHT22;45891;53.006;6.512;2023-02-11T01:21:19;6.20;99.90
60027;DHT22;45891;53.006;6.512;2023-02-11T01:23:44;6.20;99.90
60027;DHT22;45891;53.006;6.512;2023-02-11T01:26:10;6.10;99.90
60027;DHT22;45891;53.006;6.512;2023-02-11T01:28:36;6.20;99.90
60027;DHT22;45891;53.006;6.512;2023-02-11T01:31:03;6.10;99.90
60027;DHT22;45891;53.006;6.512;2023-02-11T01:33:29;6.10;99.90
60027;DHT22;45891;53.006;6.512;2023-02-11T01:35:58;6.20;99.90
60027;DHT22;45891;53.006;6.512;2023-02-11T01:38:25;6.20;99.90
60027;DHT22;45891;53.006;6.512;2023-02-11T01:40:52;6.20;99.90
60027;DHT22;45891;53.006;6.512;2023-02-11T01:43:18;6.10;99.90
60027;DHT22;45891;53.006;6.512;2023-02-11T01:48:12;6.00;99.90
60027;DHT22;45891;53.006;6.512;2023-02-11T01:50:39;6.00;99.90
60027;DHT22;45891;53.006;6.512;2023-02-11T01:53:06;6.00;99.90
60027;DHT22;45891;53.006;6.512;2023-02-11T01:55:51;6.00;99.90
60027;DHT22;45891;53.006;6.512;2023-02-11T01:58:37;6.00;99.90
60027;DHT22;45891;53.006;6.512;2023-02-11T02:01:03;6.00;99.90
60027;DHT22;45891;53.006;6.512;2023-02-11T02:03:32;6.00;99.90
60027;DHT22;45891;53.006;6.512;2023-02-11T02:06:02;6.00;99.90
60027;DHT22;45891;53.006;6.512;2023-02-11T02:08:50;6.00;99.90
60027;DHT22;45891;53.006;6.512;2023-02-11T02:11:17;6.00;99.90
60027;DHT22;45891;53.006;6.512;2023-02-11T02:13:43;6.10;99.90
60027;DHT22;45891;53.006;6.512;2023-02-11T02:16:13;6.10;99.90
60027;DHT22;45891;53.006;6.512;2023-02-11T02:18:45;6.10;99.90
60027;DHT22;45891;53.006;6.512;2023-02-11T02:24:09;6.10;99.90
60027;DHT22;45891;53.006;6.512;2023-02-11T02:26:50;6.20;99.90
60027;DHT22;45891;53.006;6.512;2023-02-11T02:34:35;6.20;99.90
60027;DHT22;45891;53.006;6.512;2023-02-11T02:37:03;6.30;99.90
60027;DHT22;45891;53.006;6.512;2023-02-11T02:39:33;6.30;99.90
60027;DHT22;45891;53.006;6.512;2023-02-11T02:42:01;6.40;99.90
60027;DHT22;45891;53.006;6.512;2023-02-11T02:44:28;6.40;99.90
60027;DHT22;45891;53.006;6.512;2023-02-11T02:46:54;6.50;99.90
60027;DHT22;45891;53.006;6.512;2023-02-11T02:49:20;6.50;99.90
60027;DHT22;45891;53.006;6.512;2023-02-11T02:51:57;6.60;99.90
60027;DHT22;45891;53.006;6.512;2023-02-11T03:02:10;6.60;99.90
60027;DHT22;45891;53.006;6.512;2023-02-11T03:07:19;6.60;99.90
60027;DHT22;45891;53.006;6.512;2023-02-11T03:09:52;6.60;99.90
60027;DHT22;45891;53.006;6.512;2023-02-11T03:12:19;6.60;99.90
60027;DHT22;45891;53.006;6.512;2023-02-11T03:14:47;6.60;99.90
60027;DHT22;45891;53.006;6.512;2023-02-11T03:17:14;6.60;99.90
60027;DHT22;45891;53.006;6.512;2023-02-11T03:19:41;6.60;99.90
60027;DHT22;45891;53.006;6.512;2023-02-11T03:22:29;6.60;99.90
60027;DHT22;45891;53.006;6.512;2023-02-11T03:24:57;6.60;99.90
60027;DHT22;45891;53.006;6.512;2023-02-11T03:33:18;6.60;99.90
60027;DHT22;45891;53.006;6.512;2023-02-11T03:35:42;6.70;99.90
60027;DHT22;45891;53.006;6.512;2023-02-11T03:38:11;6.70;99.90
60027;DHT22;45891;53.006;6.512;2023-02-11T03:40:42;6.70;99.90
60027;DHT22;45891;53.006;6.512;2023-02-11T03:45:36;6.70;99.90
60027;DHT22;45891;53.006;6.512;2023-02-11T03:48:13;6.70;99.90
60027;DHT22;45891;53.006;6.512;2023-02-11T03:50:40;6.70;99.90
60027;DHT22;45891;53.006;6.512;2023-02-11T03:53:09;6.70;99.90
60027;DHT22;45891;53.006;6.512;2023-02-11T03:55:39;6.70;99.90
60027;DHT22;45891;53.006;6.512;2023-02-11T03:58:08;6.70;99.90
60027;DHT22;45891;53.006;6.512;2023-02-11T04:00:36;6.80;99.90
60027;DHT22;45891;53.006;6.512;2023-02-11T04:03:04;6.70;99.90
60027;DHT22;45891;53.006;6.512;2023-02-11T04:05:30;6.80;99.90
60027;DHT22;45891;53.006;6.512;2023-02-11T04:07:56;6.80;99.90
60027;DHT22;45891;53.006;6.512;2023-02-11T04:10:22;6.80;99.90
60027;DHT22;45891;53.006;6.512;2023-02-11T04:12:48;6.80;99.90
60027;DHT22;45891;53.006;6.512;2023-02-11T04:15:14;6.80;99.90
60027;DHT22;45891;53.006;6.512;2023-02-11T04:17:40;6.80;99.90
60027;DHT22;45891;53.006;6.512;2023-02-11T04:20:06;6.80;99.90
60027;DHT22;45891;53.006;6.512;2023-02-11T04:22:32;6.80;99.90
60027;DHT22;45891;53.006;6.512;2023-02-11T04:24:58;6.70;99.90
60027;DHT22;45891;53.006;6.512;2023-02-11T04:27:27;6.70;99.90
60027;DHT22;45891;53.006;6.512;2023-02-11T04:29:53;6.80;99.90
60027;DHT22;45891;53.006;6.512;2023-02-11T04:32:20;6.70;99.90
60027;DHT22;45891;53.006;6.512;2023-02-11T04:34:46;6.70;99.90
60027;DHT22;45891;53.006;6.512;2023-02-11T04:37:13;6.70;99.90
60027;DHT22;45891;53.006;6.512;2023-02-11T04:39:39;6.70;99.90
60027;DHT22;45891;53.006;6.512;2023-02-11T04:42:05;6.70;99.90
60027;DHT22;45891;53.006;6.512;2023-02-11T04:44:31;6.70;99.90
60027;DHT22;45891;53.006;6.512;2023-02-11T04:46:57;6.70;99.90
60027;DHT22;45891;53.006;6.512;2023-02-11T04:49:23;6.70;99.90
60027;DHT22;45891;53.006;6.512;2023-02-11T04:51:49;6.70;99.90
60027;DHT22;45891;53.006;6.512;2023-02-11T04:54:15;6.70;99.90
60027;DHT22;45891;53.006;6.512;2023-02-11T04:56:41;6.70;99.90
60027;DHT22;45891;53.006;6.512;2023-02-11T04:59:07;6.70;99.90
60027;DHT22;45891;53.006;6.512;2023-02-11T05:01:33;6.70;99.90
60027;DHT22;45891;53.006;6.512;2023-02-11T05:03:59;6.70;99.90
60027;DHT22;45891;53.006;6.512;2023-02-11T05:06:24;6.70;99.90
60027;DHT22;45891;53.006;6.512;2023-02-11T05:08:50;6.70;99.90
60027;DHT22;45891;53.006;6.512;2023-02-11T05:11:18;6.70;99.90
60027;DHT22;45891;53.006;6.512;2023-02-11T05:13:44;6.70;99.90
60027;DHT22;45891;53.006;6.512;2023-02-11T05:16:10;6.70;99.90
60027;DHT22;45891;53.006;6.512;2023-02-11T05:18:36;6.60;99.90
60027;DHT22;45891;53.006;6.512;2023-02-11T05:21:06;6.70;99.90
60027;DHT22;45891;53.006;6.512;2023-02-11T05:23:32;6.60;99.90
60027;DHT22;45891;53.006;6.512;2023-02-11T05:25:59;6.60;99.90
60027;DHT22;45891;53.006;6.512;2023-02-11T05:28:25;6.60;99.90
60027;DHT22;45891;53.006;6.512;2023-02-11T05:30:51;6.60;99.90
60027;DHT22;45891;53.006;6.512;2023-02-11T05:33:17;6.60;99.90
60027;DHT22;45891;53.006;6.512;2023-02-11T05:35:42;6.60;99.90
60027;DHT22;45891;53.006;6.512;2023-02-11T05:38:08;6.60;99.90
60027;DHT22;45891;53.006;6.512;2023-02-11T05:40:34;6.60;99.90
60027;DHT22;45891;53.006;6.512;2023-02-11T05:43:00;6.60;99.90
60027;DHT22;45891;53.006;6.512;2023-02-11T05:45:26;6.60;99.90
60027;DHT22;45891;53.006;6.512;2023-02-11T05:47:52;6.50;99.90
60027;DHT22;45891;53.006;6.512;2023-02-11T05:50:19;6.60;99.90
60027;DHT22;45891;53.006;6.512;2023-02-11T05:52:44;6.60;99.90
60027;DHT22;45891;53.006;6.512;2023-02-11T05:55:10;6.60;99.90
60027;DHT22;45891;53.006;6.512;2023-02-11T05:57:36;6.60;99.90
60027;DHT22;45891;53.006;6.512;2023-02-11T06:00:03;6.60;99.90
60027;DHT22;45891;53.006;6.512;2023-02-11T06:02:29;6.60;99.90
60027;DHT22;45891;53.006;6.512;2023-02-11T06:04:55;6.60;99.90
60027;DHT22;45891;53.006;6.512;2023-02-11T06:07:21;6.60;99.90
60027;DHT22;45891;53.006;6.512;2023-02-11T06:09:46;6.60;99.90
60027;DHT22;45891;53.006;6.512;2023-02-11T06:12:12;6.50;99.90
60027;DHT22;45891;53.006;6.512;2023-02-11T06:14:38;6.50;99.90
60027;DHT22;45891;53.006;6.512;2023-02-11T06:17:04;6.60;99.90
60027;DHT22;45891;53.006;6.512;2023-02-11T06:19:33;6.50;99.90
60027;DHT22;45891;53.006;6.512;2023-02-11T06:21:59;6.60;99.90
60027;DHT22;45891;53.006;6.512;2023-02-11T06:24:25;6.50;99.90
60027;DHT22;45891;53.006;6.512;2023-02-11T06:26:51;6.50;99.90
60027;DHT22;45891;53.006;6.512;2023-02-11T06:29:17;6.50;99.90
60027;DHT22;45891;53.006;6.512;2023-02-11T06:31:43;6.50;99.90
60027;DHT22;45891;53.006;6.512;2023-02-11T06:34:09;6.60;99.90
60027;DHT22;45891;53.006;6.512;2023-02-11T06:36:35;6.50;99.90
60027;DHT22;45891;53.006;6.512;2023-02-11T06:39:02;6.50;99.90
60027;DHT22;45891;53.006;6.512;2023-02-11T06:41:28;6.60;99.90
60027;DHT22;45891;53.006;6.512;2023-02-11T06:43:54;6.50;99.90
60027;DHT22;45891;53.006;6.512;2023-02-11T06:46:20;6.60;99.90
60027;DHT22;45891;53.006;6.512;2023-02-11T06:48:46;6.60;99.90
60027;DHT22;45891;53.006;6.512;2023-02-11T06:51:13;6.60;99.90
60027;DHT22;45891;53.006;6.512;2023-02-11T06:53:40;6.60;99.90
60027;DHT22;45891;53.006;6.512;2023-02-11T06:56:08;6.60;99.90
60027;DHT22;45891;53.006;6.512;2023-02-11T06:58:35;6.60;99.90
60027;DHT22;45891;53.006;6.512;2023-02-11T07:01:04;6.60;99.90
60027;DHT22;45891;53.006;6.512;2023-02-11T07:03:34;6.60;99.90
60027;DHT22;45891;53.006;6.512;2023-02-11T07:06:01;6.60;99.90
60027;DHT22;45891;53.006;6.512;2023-02-11T07:08:27;6.60;99.90
60027;DHT22;45891;53.006;6.512;2023-02-11T07:10:53;6.60;99.90
60027;DHT22;45891;53.006;6.512;2023-02-11T07:13:19;6.60;99.90
60027;DHT22;45891;53.006;6.512;2023-02-11T07:15:45;6.60;99.90
60027;DHT22;45891;53.006;6.512;2023-02-11T07:18:11;6.60;99.90
60027;DHT22;45891;53.006;6.512;2023-02-11T07:20:37;6.60;99.90
60027;DHT22;45891;53.006;6.512;2023-02-11T07:23:03;6.60;99.90
60027;DHT22;45891;53.006;6.512;2023-02-11T07:25:29;6.70;99.90
60027;DHT22;45891;53.006;6.512;2023-02-11T07:27:55;6.60;99.90
60027;DHT22;45891;53.006;6.512;2023-02-11T07:30:21;6.60;99.90
60027;DHT22;45891;53.006;6.512;2023-02-11T07:32:47;6.70;99.90
60027;DHT22;45891;53.006;6.512;2023-02-11T07:35:13;6.70;99.90
60027;DHT22;45891;53.006;6.512;2023-02-11T07:37:39;6.70;99.90
60027;DHT22;45891;53.006;6.512;2023-02-11T07:40:06;6.70;99.90
60027;DHT22;45891;53.006;6.512;2023-02-11T07:42:33;6.70;99.90
60027;DHT22;45891;53.006;6.512;2023-02-11T07:44:59;6.70;99.90
60027;DHT22;45891;53.006;6.512;2023-02-11T07:47:25;6.70;99.90
60027;DHT22;45891;53.006;6.512;2023-02-11T07:49:52;6.70;99.90
60027;DHT22;45891;53.006;6.512;2023-02-11T07:52:18;6.80;99.90
60027;DHT22;45891;53.006;6.512;2023-02-11T07:54:44;6.80;99.90
60027;DHT22;45891;53.006;6.512;2023-02-11T07:57:10;6.80;99.90
60027;DHT22;45891;53.006;6.512;2023-02-11T07:59:36;6.80;99.90
60027;DHT22;45891;53.006;6.512;2023-02-11T08:02:02;6.80;99.90
60027;DHT22;45891;53.006;6.512;2023-02-11T08:04:28;6.80;99.90
60027;DHT22;45891;53.006;6.512;2023-02-11T08:06:54;6.80;99.90
60027;DHT22;45891;53.006;6.512;2023-02-11T08:09:22;6.80;99.90
60027;DHT22;45891;53.006;6.512;2023-02-11T08:11:48;6.90;99.90
60027;DHT22;45891;53.006;6.512;2023-02-11T08:14:13;6.90;99.90
60027;DHT22;45891;53.006;6.512;2023-02-11T08:16:40;6.90;99.90
60027;DHT22;45891;53.006;6.512;2023-02-11T08:19:07;6.90;99.90
60027;DHT22;45891;53.006;6.512;2023-02-11T08:21:35;6.90;99.90
60027;DHT22;45891;53.006;6.512;2023-02-11T08:24:01;7.00;99.90
60027;DHT22;45891;53.006;6.512;2023-02-11T08:26:29;7.00;99.90
60027;DHT22;45891;53.006;6.512;2023-02-11T08:28:57;7.00;99.90
60027;DHT22;45891;53.006;6.512;2023-02-11T08:31:24;7.00;99.90
60027;DHT22;45891;53.006;6.512;2023-02-11T08:33:50;7.00;99.90
60027;DHT22;45891;53.006;6.512;2023-02-11T08:36:23;7.10;99.90
60027;DHT22;45891;53.006;6.512;2023-02-11T08:38:50;7.10;99.90
60027;DHT22;45891;53.006;6.512;2023-02-11T08:41:16;7.10;99.90
60027;DHT22;45891;53.006;6.512;2023-02-11T08:43:42;7.10;99.90
60027;DHT22;45891;53.006;6.512;2023-02-11T08:46:11;7.20;99.90
60027;DHT22;45891;53.006;6.512;2023-02-11T08:48:37;7.20;99.90
60027;DHT22;45891;53.006;6.512;2023-02-11T08:51:07;7.20;99.90
60027;DHT22;45891;53.006;6.512;2023-02-11T08:53:33;7.30;99.90
60027;DHT22;45891;53.006;6.512;2023-02-11T08:55:59;7.30;99.90
60027;DHT22;45891;53.006;6.512;2023-02-11T08:58:25;7.30;99.90
60027;DHT22;45891;53.006;6.512;2023-02-11T09:00:51;7.30;99.90
60027;DHT22;45891;53.006;6.512;2023-02-11T09:03:17;7.40;99.90
60027;DHT22;45891;53.006;6.512;2023-02-11T09:05:44;7.40;99.90
60027;DHT22;45891;53.006;6.512;2023-02-11T09:08:11;7.40;99.90
60027;DHT22;45891;53.006;6.512;2023-02-11T09:10:37;7.40;99.90
60027;DHT22;45891;53.006;6.512;2023-02-11T09:13:03;7.50;99.90
60027;DHT22;45891;53.006;6.512;2023-02-11T09:15:29;7.60;99.90
60027;DHT22;45891;53.006;6.512;2023-02-11T09:17:55;7.70;99.90
60027;DHT22;45891;53.006;6.512;2023-02-11T09:20:21;7.80;99.90
60027;DHT22;45891;53.006;6.512;2023-02-11T09:22:47;7.80;99.90
60027;DHT22;45891;53.006;6.512;2023-02-11T09:25:13;7.80;99.90
60027;DHT22;45891;53.006;6.512;2023-02-11T09:27:39;7.80;99.90
60027;DHT22;45891;53.006;6.512;2023-02-11T09:30:05;7.90;99.90
60027;DHT22;45891;53.006;6.512;2023-02-11T09:32:31;7.90;99.90
60027;DHT22;45891;53.006;6.512;2023-02-11T09:34:57;7.90;99.90
60027;DHT22;45891;53.006;6.512;2023-02-11T09:37:23;8.00;99.90
60027;DHT22;45891;53.006;6.512;2023-02-11T09:39:49;8.00;99.90
60027;DHT22;45891;53.006;6.512;2023-02-11T09:42:36;8.10;99.90
60027;DHT22;45891;53.006;6.512;2023-02-11T09:45:01;8.10;99.90
60027;DHT22;45891;53.006;6.512;2023-02-11T09:47:28;8.20;99.90
60027;DHT22;45891;53.006;6.512;2023-02-11T09:49:58;8.30;99.90
60027;DHT22;45891;53.006;6.512;2023-02-11T09:54:58;8.30;99.90
60027;DHT22;45891;53.006;6.512;2023-02-11T09:57:30;8.40;99.90
60027;DHT22;45891;53.006;6.512;2023-02-11T09:59:57;8.40;99.90
60027;DHT22;45891;53.006;6.512;2023-02-11T10:04:59;8.50;99.90
60027;DHT22;45891;53.006;6.512;2023-02-11T10:12:36;8.70;99.90
60027;DHT22;45891;53.006;6.512;2023-02-11T10:15:14;8.70;99.90
60027;DHT22;45891;53.006;6.512;2023-02-11T10:22:59;8.80;99.90
60027;DHT22;45891;53.006;6.512;2023-02-11T10:25:38;8.90;99.90
60027;DHT22;45891;53.006;6.512;2023-02-11T10:28:19;9.00;99.90
60027;DHT22;45891;53.006;6.512;2023-02-11T10:30:57;9.00;99.90
60027;DHT22;45891;53.006;6.512;2023-02-11T10:35:58;9.10;99.90
60027;DHT22;45891;53.006;6.512;2023-02-11T10:38:24;9.00;99.90
60027;DHT22;45891;53.006;6.512;2023-02-11T10:40:51;9.00;99.90
60027;DHT22;45891;53.006;6.512;2023-02-11T10:43:21;9.10;99.90
60027;DHT22;45891;53.006;6.512;2023-02-11T10:45:52;9.10;99.90
60027;DHT22;45891;53.006;6.512;2023-02-11T10:53:38;9.00;99.90
60027;DHT22;45891;53.006;6.512;2023-02-11T10:56:05;9.10;99.90
60027;DHT22;45891;53.006;6.512;2023-02-11T10:58:40;9.10;99.90
60027;DHT22;45891;53.006;6.512;2023-02-11T11:01:08;9.10;99.90
60027;DHT22;45891;53.006;6.512;2023-02-11T11:03:39;9.20;99.90
60027;DHT22;45891;53.006;6.512;2023-02-11T11:06:10;9.20;99.90
60027;DHT22;45891;53.006;6.512;2023-02-11T11:08:43;9.20;99.90
60027;DHT22;45891;53.006;6.512;2023-02-11T11:11:13;9.20;99.90
60027;DHT22;45891;53.006;6.512;2023-02-11T11:14:01;9.30;99.90
60027;DHT22;45891;53.006;6.512;2023-02-11T11:16:27;9.40;99.90
60027;DHT22;45891;53.006;6.512;2023-02-11T11:21:35;9.50;99.90
60027;DHT22;45891;53.006;6.512;2023-02-11T11:24:01;9.50;99.90
60027;DHT22;45891;53.006;6.512;2023-02-11T11:26:40;9.60;99.90
60027;DHT22;45891;53.006;6.512;2023-02-11T11:29:07;9.70;99.90
60027;DHT22;45891;53.006;6.512;2023-02-11T11:31:44;9.60;99.90
60027;DHT22;45891;53.006;6.512;2023-02-11T11:34:54;9.70;99.90
60027;DHT22;45891;53.006;6.512;2023-02-11T11:37:08;9.70;99.90
60027;DHT22;45891;53.006;6.512;2023-02-11T11:39:35;9.70;99.90
60027;DHT22;45891;53.006;6.512;2023-02-11T11:42:44;9.60;99.90
60027;DHT22;45891;53.006;6.512;2023-02-11T11:45:24;9.70;99.90
60027;DHT22;45891;53.006;6.512;2023-02-11T11:53:06;9.70;99.90
60027;DHT22;45891;53.006;6.512;2023-02-11T11:55:46;9.70;99.90
60027;DHT22;45891;53.006;6.512;2023-02-11T11:58:17;9.70;99.90
60027;DHT22;45891;53.006;6.512;2023-02-11T12:16:04;9.80;99.90
60027;DHT22;45891;53.006;6.512;2023-02-11T12:18:48;9.80;99.90
60027;DHT22;45891;53.006;6.512;2023-02-11T12:24:01;9.70;99.90
60027;DHT22;45891;53.006;6.512;2023-02-11T12:26:31;9.80;99.90
60027;DHT22;45891;53.006;6.512;2023-02-11T12:36:48;9.80;99.90
60027;DHT22;45891;53.006;6.512;2023-02-11T12:39:34;9.90;99.90
60027;DHT22;45891;53.006;6.512;2023-02-11T12:42:24;9.90;99.90
60027;DHT22;45891;53.006;6.512;2023-02-11T12:45:20;9.90;99.90
60027;DHT22;45891;53.006;6.512;2023-02-11T12:57:43;10.10;99.90
60027;DHT22;45891;53.006;6.512;2023-02-11T13:02:46;10.20;99.90
60027;DHT22;45891;53.006;6.512;2023-02-11T13:07:47;10.30;99.90
60027;DHT22;45891;53.006;6.512;2023-02-11T13:12:42;10.50;99.90
60027;DHT22;45891;53.006;6.512;2023-02-11T13:15:28;10.50;99.90
60027;DHT22;45891;53.006;6.512;2023-02-11T13:17:59;10.40;99.90
60027;DHT22;45891;53.006;6.512;2023-02-11T13:20:39;10.40;99.90
60027;DHT22;45891;53.006;6.512;2023-02-11T13:23:10;10.40;99.90
60027;DHT22;45891;53.006;6.512;2023-02-11T13:25:48;10.50;99.90
60027;DHT22;45891;53.006;6.512;2023-02-11T13:28:39;10.60;99.90
60027;DHT22;45891;53.006;6.512;2023-02-11T13:31:07;10.60;99.90
60027;DHT22;45891;53.006;6.512;2023-02-11T13:33:34;10.60;99.90
60027;DHT22;45891;53.006;6.512;2023-02-11T13:38:27;10.60;99.90
60027;DHT22;45891;53.006;6.512;2023-02-11T13:43:41;10.50;99.90
60027;DHT22;45891;53.006;6.512;2023-02-11T13:46:11;10.50;99.90
60027;DHT22;45891;53.006;6.512;2023-02-11T13:48:46;10.50;99.90
60027;DHT22;45891;53.006;6.512;2023-02-11T13:51:14;10.40;99.90
60027;DHT22;45891;53.006;6.512;2023-02-11T13:53:44;10.50;99.90
60027;DHT22;45891;53.006;6.512;2023-02-11T13:56:21;10.40;99.90
60027;DHT22;45891;53.006;6.512;2023-02-11T13:58:48;10.40;99.90
60027;DHT22;45891;53.006;6.512;2023-02-11T14:04:17;10.20;99.90
60027;DHT22;45891;53.006;6.512;2023-02-11T14:10:12;10.20;99.90
60027;DHT22;45891;53.006;6.512;2023-02-11T14:15:39;10.20;99.90
60027;DHT22;45891;53.006;6.512;2023-02-11T14:20:50;10.10;99.90
60027;DHT22;45891;53.006;6.512;2023-02-11T14:23:22;10.10;99.90
60027;DHT22;45891;53.006;6.512;2023-02-11T14:25:58;10.10;99.90
60027;DHT22;45891;53.006;6.512;2023-02-11T14:28:27;10.10;99.90
60027;DHT22;45891;53.006;6.512;2023-02-11T14:31:01;10.00;99.90
60027;DHT22;45891;53.006;6.512;2023-02-11T14:38:30;10.00;99.90
60027;DHT22;45891;53.006;6.512;2023-02-11T14:41:17;9.90;99.90
60027;DHT22;45891;53.006;6.512;2023-02-11T14:43:48;9.90;99.90
60027;DHT22;45891;53.006;6.512;2023-02-11T14:46:15;9.90;99.90
60027;DHT22;45891;53.006;6.512;2023-02-11T14:48:43;9.90;99.90
60027;DHT22;45891;53.006;6.512;2023-02-11T14:51:12;9.90;99.90
60027;DHT22;45891;53.006;6.512;2023-02-11T14:53:44;9.90;99.90
60027;DHT22;45891;53.006;6.512;2023-02-11T14:56:16;10.00;99.90
60027;DHT22;45891;53.006;6.512;2023-02-11T14:58:44;10.00;99.90
60027;DHT22;45891;53.006;6.512;2023-02-11T15:04:04;9.90;99.90
60027;DHT22;45891;53.006;6.512;2023-02-11T15:06:37;10.00;99.90
60027;DHT22;45891;53.006;6.512;2023-02-11T15:09:12;9.90;99.90
60027;DHT22;45891;53.006;6.512;2023-02-11T15:11:40;10.00;99.90
60027;DHT22;45891;53.006;6.512;2023-02-11T15:16:52;10.00;99.90
60027;DHT22;45891;53.006;6.512;2023-02-11T15:19:26;9.90;99.90
60027;DHT22;45891;53.006;6.512;2023-02-11T15:21:53;9.90;99.90
60027;DHT22;45891;53.006;6.512;2023-02-11T15:24:21;9.90;99.90
60027;DHT22;45891;53.006;6.512;2023-02-11T15:27:10;9.90;99.90
60027;DHT22;45891;53.006;6.512;2023-02-11T15:29:41;9.90;99.90
60027;DHT22;45891;53.006;6.512;2023-02-11T15:34:34;9.80;99.90
60027;DHT22;45891;53.006;6.512;2023-02-11T15:37:01;9.80;99.90
60027;DHT22;45891;53.006;6.512;2023-02-11T15:39:31;9.80;99.90
60027;DHT22;45891;53.006;6.512;2023-02-11T15:44:43;9.70;99.90
60027;DHT22;45891;53.006;6.512;2023-02-11T15:47:10;9.70;99.90
60027;DHT22;45891;53.006;6.512;2023-02-11T15:49:36;9.70;99.90
60027;DHT22;45891;53.006;6.512;2023-02-11T15:52:04;9.60;99.90
60027;DHT22;45891;53.006;6.512;2023-02-11T15:54:32;9.60;99.90
60027;DHT22;45891;53.006;6.512;2023-02-11T15:57:02;9.50;99.90
60027;DHT22;45891;53.006;6.512;2023-02-11T16:04:47;9.40;99.90
60027;DHT22;45891;53.006;6.512;2023-02-11T16:07:36;9.40;99.90
60027;DHT22;45891;53.006;6.512;2023-02-11T16:09:59;9.30;99.90
60027;DHT22;45891;53.006;6.512;2023-02-11T16:12:25;9.30;99.90
60027;DHT22;45891;53.006;6.512;2023-02-11T16:14:52;9.30;99.90
60027;DHT22;45891;53.006;6.512;2023-02-11T16:19:44;9.20;99.90
60027;DHT22;45891;53.006;6.512;2023-02-11T16:22:14;9.20;99.90
60027;DHT22;45891;53.006;6.512;2023-02-11T16:24:41;9.20;99.90
60027;DHT22;45891;53.006;6.512;2023-02-11T16:27:17;9.10;99.90
60027;DHT22;45891;53.006;6.512;2023-02-11T16:29:44;9.10;99.90
60027;DHT22;45891;53.006;6.512;2023-02-11T16:32:15;9.10;99.90
60027;DHT22;45891;53.006;6.512;2023-02-11T16:34:41;9.10;99.90
60027;DHT22;45891;53.006;6.512;2023-02-11T16:37:09;9.00;99.90
60027;DHT22;45891;53.006;6.512;2023-02-11T16:39:35;9.00;99.90
60027;DHT22;45891;53.006;6.512;2023-02-11T16:42:01;9.00;99.90
60027;DHT22;45891;53.006;6.512;2023-02-11T16:44:27;9.00;99.90
60027;DHT22;45891;53.006;6.512;2023-02-11T16:46:53;8.90;99.90
60027;DHT22;45891;53.006;6.512;2023-02-11T16:49:26;8.90;99.90
60027;DHT22;45891;53.006;6.512;2023-02-11T16:51:53;8.90;99.90
60027;DHT22;45891;53.006;6.512;2023-02-11T16:54:22;8.90;99.90
60027;DHT22;45891;53.006;6.512;2023-02-11T16:56:48;8.80;99.90
60027;DHT22;45891;53.006;6.512;2023-02-11T16:59:14;8.80;99.90
60027;DHT22;45891;53.006;6.512;2023-02-11T17:01:41;8.70;99.90
60027;DHT22;45891;53.006;6.512;2023-02-11T17:04:26;8.70;99.90
60027;DHT22;45891;53.006;6.512;2023-02-11T17:06:52;8.70;99.90
60027;DHT22;45891;53.006;6.512;2023-02-11T17:09:22;8.70;99.90
60027;DHT22;45891;53.006;6.512;2023-02-11T17:11:49;8.70;99.90
60027;DHT22;45891;53.006;6.512;2023-02-11T17:14:15;8.70;99.90
60027;DHT22;45891;53.006;6.512;2023-02-11T17:16:41;8.70;99.90
60027;DHT22;45891;53.006;6.512;2023-02-11T17:19:11;8.60;99.90
60027;DHT22;45891;53.006;6.512;2023-02-11T17:21:39;8.60;99.90
60027;DHT22;45891;53.006;6.512;2023-02-11T17:24:05;8.60;99.90
60027;DHT22;45891;53.006;6.512;2023-02-11T17:26:31;8.60;99.90
60027;DHT22;45891;53.006;6.512;2023-02-11T17:28:57;8.50;99.90
60027;DHT22;45891;53.006;6.512;2023-02-11T17:31:23;8.60;99.90
60027;DHT22;45891;53.006;6.512;2023-02-11T17:33:49;8.50;99.90
60027;DHT22;45891;53.006;6.512;2023-02-11T17:36:15;8.50;99.90
60027;DHT22;45891;53.006;6.512;2023-02-11T17:38:41;8.50;99.90
60027;DHT22;45891;53.006;6.512;2023-02-11T17:41:07;8.50;99.90
60027;DHT22;45891;53.006;6.512;2023-02-11T17:43:33;8.40;99.90
60027;DHT22;45891;53.006;6.512;2023-02-11T17:45:58;8.40;99.90
60027;DHT22;45891;53.006;6.512;2023-02-11T17:48:24;8.40;99.90
60027;DHT22;45891;53.006;6.512;2023-02-11T17:50:50;8.40;99.90
60027;DHT22;45891;53.006;6.512;2023-02-11T17:53:16;8.40;99.90
60027;DHT22;45891;53.006;6.512;2023-02-11T17:55:42;8.30;99.90
60027;DHT22;45891;53.006;6.512;2023-02-11T17:58:08;8.30;99.90
60027;DHT22;45891;53.006;6.512;2023-02-11T18:00:34;8.30;99.90
60027;DHT22;45891;53.006;6.512;2023-02-11T18:03:00;8.30;99.90
60027;DHT22;45891;53.006;6.512;2023-02-11T18:05:28;8.30;99.90
60027;DHT22;45891;53.006;6.512;2023-02-11T18:07:58;8.30;99.90
60027;DHT22;45891;53.006;6.512;2023-02-11T18:10:24;8.30;99.90
60027;DHT22;45891;53.006;6.512;2023-02-11T18:12:50;8.20;99.90
60027;DHT22;45891;53.006;6.512;2023-02-11T18:15:16;8.20;99.90
60027;DHT22;45891;53.006;6.512;2023-02-11T18:17:42;8.20;99.90